Time;durP1;ratioP1;P1;durP2;ratioP2;P2;SDS_P1;SDS_P2;PMS_P1;PMS_P2;Temp;Humidity;BMP_temperature;BMP_pressure;BME280_temperature;BME280_humidity;BME280_pressure;Samples;Min_cycle;Max_cycle;Signal;HPM_P1;HPM_P2
2023/10/09 00:02:14;;;;;;;11.00;3.40;;;7.70;72.70;;;;;;4827184;29;20042;-87
2023/10/09 00:04:42;;;;;;;8.82;3.20;;;7.80;72.50;;;;;;4827051;29;20129;-87
2023/10/09 00:07:11;;;;;;;9.07;2.87;;;7.80;72.40;;;;;;4811784;29;20046;-87
2023/10/09 00:09:50;;;;;;;11.93;3.08;;;7.70;72.60;;;;;;4827130;29;20118;-87
2023/10/09 00:12:22;;;;;;;8.90;3.10;;;7.60;72.60;;;;;;4811883;29;20598;-87
2023/10/09 00:15:08;;;;;;;10.50;3.25;;;7.60;73.10;;;;;;4812163;29;20117;-86
2023/10/09 00:17:38;;;;;;;10.75;3.35;;;7.50;73.40;;;;;;4811605;29;20568;-86
2023/10/09 00:20:17;;;;;;;10.80;3.00;;;7.50;73.30;;;;;;4811956;29;20057;-86
2023/10/09 00:22:46;;;;;;;9.63;2.85;;;7.50;73.40;;;;;;4812038;29;20083;-87
2023/10/09 00:25:22;;;;;;;11.77;3.05;;;7.50;73.70;;;;;;4812499;29;20049;-87
2023/10/09 00:27:49;;;;;;;7.15;2.40;;;7.50;73.50;;;;;;4828977;29;20069;-87
2023/10/09 00:30:29;;;;;;;10.07;2.80;;;7.50;73.10;;;;;;4815843;29;20505;-86
2023/10/09 00:33:07;;;;;;;13.30;2.70;;;7.50;73.60;;;;;;4815549;29;20061;-86
2023/10/09 00:35:54;;;;;;;10.10;2.60;;;7.60;73.40;;;;;;4815425;29;20056;-86
2023/10/09 00:41:02;;;;;;;7.63;2.17;;;7.60;73.30;;;;;;4844118;29;20057;-86
2023/10/09 00:43:29;;;;;;;9.27;1.80;;;7.60;73.50;;;;;;4811360;29;20050;-86
2023/10/09 00:46:08;;;;;;;7.93;2.07;;;7.70;73.60;;;;;;4815427;29;20087;-87
2023/10/09 00:48:40;;;;;;;16.63;2.38;;;7.70;73.70;;;;;;4830601;29;20420;-87
2023/10/09 00:51:18;;;;;;;7.22;2.00;;;7.60;73.70;;;;;;4830125;29;20054;-87
2023/10/09 00:53:51;;;;;;;10.45;2.42;;;7.60;73.60;;;;;;4815411;29;20137;-87
2023/10/09 00:59:06;;;;;;;7.27;2.10;;;7.50;74.00;;;;;;4829706;29;20140;-87
2023/10/09 01:01:40;;;;;;;9.50;2.17;;;7.50;73.90;;;;;;4814993;29;20528;-87
2023/10/09 01:04:10;;;;;;;10.10;2.78;;;7.60;74.10;;;;;;4815133;29;20069;-87
2023/10/09 01:06:44;;;;;;;8.40;2.63;;;7.70;73.60;;;;;;4815308;29;20509;-87
2023/10/09 01:09:19;;;;;;;8.80;2.88;;;7.70;73.30;;;;;;4815168;29;20126;-87
2023/10/09 01:12:02;;;;;;;8.10;2.73;;;7.60;72.90;;;;;;4809729;29;20516;-87
2023/10/09 01:14:36;;;;;;;10.52;2.95;;;7.60;72.70;;;;;;4814218;29;20050;-87
2023/10/09 01:17:08;;;;;;;9.63;2.63;;;7.50;72.80;;;;;;4814969;29;20054;-87
2023/10/09 01:19:36;;;;;;;8.05;2.70;;;7.50;73.00;;;;;;4814617;29;20046;-87
2023/10/09 01:22:12;;;;;;;9.98;2.88;;;7.50;73.50;;;;;;4814495;29;20050;-86
2023/10/09 01:24:40;;;;;;;8.87;2.70;;;7.50;73.40;;;;;;4814820;29;20042;-87
2023/10/09 01:27:14;;;;;;;9.35;3.00;;;7.50;73.30;;;;;;4816919;29;20050;-87
2023/10/09 01:29:44;;;;;;;9.02;2.60;;;7.50;73.40;;;;;;4818483;29;20089;-87
2023/10/09 01:32:19;;;;;;;10.60;3.30;;;7.40;73.50;;;;;;4829402;29;20052;-86
2023/10/09 01:34:49;;;;;;;10.50;3.00;;;7.40;73.60;;;;;;4829182;29;20050;-87
2023/10/09 01:37:28;;;;;;;8.00;2.37;;;7.50;73.80;;;;;;4814333;29;20069;-86
2023/10/09 01:39:58;;;;;;;8.93;2.70;;;7.50;73.50;;;;;;4829858;29;20065;-87
2023/10/09 01:45:10;;;;;;;10.38;3.10;;;7.40;73.60;;;;;;4829056;29;20478;-87
2023/10/09 01:47:38;;;;;;;10.13;3.20;;;7.40;73.50;;;;;;4824383;29;20046;-87
2023/10/09 01:50:11;;;;;;;10.80;3.30;;;7.40;73.80;;;;;;4828937;29;20046;-87
2023/10/09 01:52:38;;;;;;;10.93;3.30;;;7.50;73.50;;;;;;4828698;29;20065;-87
2023/10/09 01:55:09;;;;;;;11.20;3.33;;;7.40;73.50;;;;;;4814149;29;20054;-87
2023/10/09 01:57:39;;;;;;;8.95;2.88;;;7.40;73.60;;;;;;4813885;29;20042;-87
2023/10/09 02:00:16;;;;;;;11.52;3.28;;;7.40;73.50;;;;;;4813719;29;20053;-87
2023/10/09 02:03:26;;;;;;;9.83;3.20;;;7.50;73.10;;;;;;5166471;24;20136;-89
2023/10/09 02:06:04;;;;;;;8.68;2.72;;;7.40;73.20;;;;;;4811455;29;20050;-88
2023/10/09 02:08:35;;;;;;;8.60;2.83;;;7.40;73.20;;;;;;4813010;29;20110;-88
2023/10/09 02:11:03;;;;;;;8.45;2.80;;;7.40;73.50;;;;;;4814510;29;20110;-88
2023/10/09 02:13:31;;;;;;;8.52;3.08;;;7.30;73.30;;;;;;4812563;29;20100;-89
2023/10/09 02:16:13;;;;;;;9.83;3.20;;;7.30;73.60;;;;;;4813315;29;20046;-89
2023/10/09 02:18:52;;;;;;;8.88;2.67;;;7.20;73.20;;;;;;4812777;29;20102;-89
2023/10/09 02:21:33;;;;;;;9.10;3.13;;;7.20;73.00;;;;;;4813024;29;20107;-88
2023/10/09 02:24:07;;;;;;;8.65;2.65;;;7.20;72.90;;;;;;4825000;29;20050;-88
2023/10/09 02:31:40;;;;;;;9.70;3.30;;;7.30;72.40;;;;;;4827398;29;20136;-89
2023/10/09 02:34:08;;;;;;;8.82;2.58;;;7.40;72.50;;;;;;4824215;29;20046;-88
2023/10/09 02:36:42;;;;;;;9.30;2.90;;;7.40;72.10;;;;;;4813714;29;20096;-88
2023/10/09 02:39:23;;;;;;;8.95;2.63;;;7.40;72.40;;;;;;4813354;29;20046;-88
2023/10/09 02:42:01;;;;;;;8.60;2.60;;;7.30;71.90;;;;;;4828719;29;20034;-88
2023/10/09 02:44:40;;;;;;;8.30;2.10;;;7.30;72.00;;;;;;4813001;29;20052;-88
2023/10/09 02:47:17;;;;;;;7.97;2.03;;;7.30;72.20;;;;;;4827072;29;20460;-88
2023/10/09 02:49:48;;;;;;;10.32;2.42;;;7.30;72.30;;;;;;4813101;29;20050;-88
2023/10/09 02:52:19;;;;;;;7.65;2.40;;;7.30;72.30;;;;;;4826057;29;20074;-88
2023/10/09 02:54:47;;;;;;;8.73;2.20;;;7.30;72.80;;;;;;4810854;29;20050;-88
2023/10/09 02:57:23;;;;;;;7.00;2.20;;;7.40;72.40;;;;;;4811853;29;20065;-88
2023/10/09 02:59:51;;;;;;;10.68;2.42;;;7.40;72.40;;;;;;4812419;29;20049;-88
2023/10/09 03:02:19;;;;;;;8.27;2.75;;;7.40;71.90;;;;;;4810482;29;20133;-88
2023/10/09 03:04:46;;;;;;;8.68;2.08;;;7.30;72.40;;;;;;4817236;29;20062;-87
2023/10/09 03:07:13;;;;;;;7.40;2.20;;;7.20;72.20;;;;;;4811694;29;20037;-88
2023/10/09 03:09:41;;;;;;;7.93;2.47;;;7.20;72.20;;;;;;4811839;29;20062;-88
2023/10/09 03:12:12;;;;;;;8.18;2.15;;;7.20;72.30;;;;;;4811920;29;20053;-88
2023/10/09 03:14:41;;;;;;;8.82;2.50;;;7.30;72.30;;;;;;4811998;29;20046;-88
2023/10/09 03:17:11;;;;;;;7.50;1.98;;;7.30;72.30;;;;;;4811830;29;20104;-87
2023/10/09 03:19:40;;;;;;;8.13;2.17;;;7.30;72.40;;;;;;4822276;29;20053;-88
2023/10/09 03:22:10;;;;;;;8.30;2.22;;;7.40;72.10;;;;;;4812082;29;20061;-88
2023/10/09 03:24:49;;;;;;;7.38;2.25;;;7.40;72.10;;;;;;4826465;29;20046;-88
2023/10/09 03:27:18;;;;;;;7.07;2.13;;;7.30;72.20;;;;;;4809510;29;20099;-88
2023/10/09 03:29:49;;;;;;;9.13;2.40;;;7.40;72.30;;;;;;4810895;29;20050;-88
2023/10/09 03:32:19;;;;;;;7.93;2.30;;;7.40;72.40;;;;;;4825848;29;20052;-88
2023/10/09 03:34:49;;;;;;;6.15;1.73;;;7.40;72.10;;;;;;4810293;29;20050;-88
2023/10/09 03:37:33;;;;;;;7.40;2.05;;;7.40;72.30;;;;;;4810909;29;20070;-88
2023/10/09 03:40:02;;;;;;;8.57;2.55;;;7.40;71.70;;;;;;4826548;29;20098;-88
2023/10/09 03:42:30;;;;;;;7.65;2.22;;;7.40;72.00;;;;;;4811539;29;20042;-88
2023/10/09 03:44:57;;;;;;;7.93;1.90;;;7.40;71.90;;;;;;4811362;29;20382;-88
2023/10/09 03:47:27;;;;;;;7.40;1.98;;;7.30;71.80;;;;;;4812145;29;20552;-87
2023/10/09 03:49:55;;;;;;;5.65;1.27;;;7.30;71.50;;;;;;4811354;29;20137;-88
2023/10/09 03:52:25;;;;;;;7.25;1.60;;;7.30;71.50;;;;;;4820647;29;20113;-88
2023/10/09 03:54:54;;;;;;;5.97;1.80;;;7.30;71.40;;;;;;4811721;29;20046;-88
2023/10/09 03:57:23;;;;;;;5.67;1.50;;;7.40;71.10;;;;;;4825888;29;20034;-88
2023/10/09 03:59:51;;;;;;;6.82;1.80;;;7.40;71.00;;;;;;4825630;29;20066;-88
2023/10/09 04:02:21;;;;;;;8.07;1.98;;;7.40;71.20;;;;;;4810793;29;22301;-88
2023/10/09 04:04:51;;;;;;;6.28;1.73;;;7.40;71.20;;;;;;4805669;29;20512;-88
2023/10/09 04:07:19;;;;;;;10.02;1.80;;;7.40;71.10;;;;;;4825354;29;20050;-87
2023/10/09 04:09:51;;;;;;;7.07;1.87;;;7.40;70.80;;;;;;4811370;29;20089;-88
2023/10/09 04:12:21;;;;;;;7.13;1.67;;;7.40;71.70;;;;;;4811140;29;20140;-88
2023/10/09 04:14:54;;;;;;;7.15;2.00;;;7.40;71.40;;;;;;4823119;29;20552;-88
2023/10/09 04:20:25;;;;;;;7.18;1.90;;;7.50;71.10;;;;;;4826378;29;20057;-88
2023/10/09 04:22:50;;;;;;;6.33;2.17;;;7.50;71.00;;;;;;4825911;29;20085;-88
2023/10/09 04:25:28;;;;;;;7.70;1.70;;;7.50;70.50;;;;;;4811227;29;20050;-88
2023/10/09 04:30:58;;;;;;;7.20;1.90;;;7.50;70.60;;;;;;4790081;29;20604;-87
2023/10/09 04:33:40;;;;;;;6.75;1.92;;;7.40;71.10;;;;;;4810740;29;20508;-88
2023/10/09 04:38:59;;;;;;;8.02;1.70;;;7.50;71.00;;;;;;4825628;29;20408;-88
2023/10/09 04:41:32;;;;;;;6.60;1.58;;;7.50;71.10;;;;;;4825597;29;20070;-88
2023/10/09 04:47:18;;;;;;;7.97;2.28;;;7.50;70.20;;;;;;4825714;29;20457;-88
2023/10/09 05:02:56;;;;;;;6.27;1.30;;;7.50;69.30;;;;;;4841691;29;20118;-89
2023/10/09 05:08:21;;;;;;;5.57;1.42;;;7.60;69.10;;;;;;4826165;29;20050;-89
2023/10/09 05:16:26;;;;;;;6.13;1.30;;;7.70;70.20;;;;;;4829996;29;20056;-92
2023/10/09 05:19:05;;;;;;;7.03;1.45;;;7.80;70.00;;;;;;4829183;29;20090;-88
2023/10/09 05:21:44;;;;;;;6.47;1.40;;;7.80;70.70;;;;;;4827653;29;20056;-88
2023/10/09 05:37:34;;;;;;;6.80;1.65;;;7.40;72.80;;;;;;4842159;29;20094;-85
2023/10/09 05:42:44;;;;;;;6.57;1.93;;;7.40;73.90;;;;;;4826595;29;20056;-88
2023/10/09 06:04:33;;;;;;;5.82;1.70;;;7.10;76.80;;;;;;4827329;29;20523;-86
2023/10/09 06:07:11;;;;;;;7.60;2.22;;;7.00;76.50;;;;;;4828100;29;20492;-86
2023/10/09 06:09:52;;;;;;;6.43;1.90;;;7.00;77.00;;;;;;4827279;29;20106;-86
2023/10/09 06:12:33;;;;;;;9.15;2.15;;;7.00;77.50;;;;;;4826691;29;20048;-87
2023/10/09 06:17:50;;;;;;;6.35;1.45;;;7.20;77.50;;;;;;4823057;29;20065;-85
2023/10/09 06:23:23;;;;;;;7.50;1.90;;;7.20;77.10;;;;;;4793339;29;20051;-86
2023/10/09 06:26:02;;;;;;;8.23;1.88;;;7.20;77.60;;;;;;4811208;29;20065;-86
2023/10/09 06:28:35;;;;;;;8.70;2.40;;;7.20;78.00;;;;;;4811953;29;20226;-85
2023/10/09 06:31:27;;;;;;;6.25;1.58;;;7.20;78.10;;;;;;4811232;29;20074;-85
2023/10/09 06:34:15;;;;;;;8.75;1.60;;;7.20;78.10;;;;;;4825970;29;20080;-85
2023/10/09 06:36:52;;;;;;;7.27;1.70;;;7.20;78.10;;;;;;4826712;29;20077;-85
2023/10/09 06:47:51;;;;;;;5.57;1.33;;;7.40;78.90;;;;;;4826587;29;20050;-85
2023/10/09 06:55:48;;;;;;;5.38;1.08;;;7.50;79.10;;;;;;4828033;29;20449;-86
2023/10/09 06:58:28;;;;;;;5.07;1.17;;;7.50;78.60;;;;;;4826287;29;20456;-86
2023/10/09 07:03:32;;;;;;;4.80;1.13;;;7.50;78.50;;;;;;4826081;29;20140;-86
2023/10/09 07:06:24;;;;;;;6.53;1.40;;;7.60;78.90;;;;;;4826386;29;20054;-85
2023/10/09 07:17:21;;;;;;;8.03;1.87;;;7.60;79.40;;;;;;4840985;29;20046;-85
2023/10/09 07:24:57;;;;;;;6.00;1.20;;;7.40;80.30;;;;;;4826024;29;20046;-85
2023/10/09 07:35:46;;;;;;;9.00;1.83;;;7.10;80.90;;;;;;4827162;29;20054;-86
2023/10/09 07:38:19;;;;;;;9.52;2.20;;;7.10;80.30;;;;;;4825923;29;20045;-86
2023/10/09 07:46:32;;;;;;;5.90;1.98;;;7.00;80.30;;;;;;4824690;29;20512;-85
2023/10/09 07:49:09;;;;;;;10.30;2.47;;;6.90;79.90;;;;;;4812728;29;20098;-86
2023/10/09 07:51:38;;;;;;;6.85;2.08;;;6.90;80.20;;;;;;4825938;29;20042;-86
2023/10/09 07:54:07;;;;;;;8.63;2.15;;;6.90;80.70;;;;;;4809468;29;20053;-86
2023/10/09 07:56:46;;;;;;;8.53;2.20;;;6.90;80.40;;;;;;4810249;29;20060;-86
2023/10/09 07:59:17;;;;;;;7.68;2.30;;;6.90;80.70;;;;;;4825413;29;20070;-85
2023/10/09 08:01:53;;;;;;;9.98;2.80;;;6.90;80.80;;;;;;4825085;29;20404;-85
2023/10/09 08:04:39;;;;;;;8.35;2.88;;;6.90;80.50;;;;;;4824970;29;20060;-85
2023/10/09 08:07:08;;;;;;;8.07;2.58;;;6.80;80.90;;;;;;4840553;29;20054;-85
2023/10/09 08:15:20;;;;;;;7.38;2.40;;;6.80;80.80;;;;;;4824963;29;20417;-85
2023/10/09 08:18:09;;;;;;;8.77;2.70;;;6.80;80.30;;;;;;4825583;29;20052;-85
2023/10/09 08:23:29;;;;;;;7.53;2.20;;;6.80;81.00;;;;;;4835714;29;20133;-85
2023/10/09 08:26:17;;;;;;;8.70;2.90;;;6.70;80.70;;;;;;4825551;29;20530;-85
2023/10/09 08:28:45;;;;;;;8.50;3.08;;;6.70;81.50;;;;;;4822525;29;20050;-85
2023/10/09 08:31:34;;;;;;;8.15;3.28;;;6.80;81.70;;;;;;4810855;29;20481;-85
2023/10/09 08:34:03;;;;;;;7.55;2.38;;;6.90;82.00;;;;;;4817291;29;20099;-85
2023/10/09 08:36:36;;;;;;;7.60;2.03;;;7.00;82.00;;;;;;4824022;29;20054;-90
2023/10/09 08:42:02;;;;;;;6.85;1.60;;;7.10;80.90;;;;;;4834134;29;20113;-91
2023/10/09 08:44:34;;;;;;;5.93;1.50;;;7.10;81.10;;;;;;4811265;29;20511;-92
2023/10/09 08:47:02;;;;;;;8.02;1.75;;;7.00;80.50;;;;;;4814697;29;20061;-91
2023/10/09 08:49:33;;;;;;;6.70;1.93;;;7.10;80.30;;;;;;4820121;29;20110;-91
2023/10/09 08:52:03;;;;;;;7.88;1.73;;;7.00;80.40;;;;;;4814564;29;20049;-91
2023/10/09 08:54:33;;;;;;;5.88;1.58;;;7.00;80.60;;;;;;4814633;29;20073;-91
2023/10/09 08:57:01;;;;;;;6.30;1.52;;;7.00;80.10;;;;;;4810803;29;20060;-91
2023/10/09 08:59:28;;;;;;;5.95;1.60;;;7.00;80.70;;;;;;4814726;29;20450;-91
2023/10/09 09:01:59;;;;;;;5.67;1.57;;;7.00;80.60;;;;;;4814773;29;20389;-92
2023/10/09 09:04:40;;;;;;;5.00;1.40;;;6.90;81.00;;;;;;4814707;29;20061;-92
2023/10/09 09:07:33;;;;;;;5.65;1.52;;;6.80;80.70;;;;;;4829790;29;20056;-91
2023/10/09 09:10:17;;;;;;;6.28;1.75;;;6.80;81.30;;;;;;4812332;29;20045;-92
2023/10/09 09:12:45;;;;;;;6.43;1.63;;;6.80;81.00;;;;;;4813917;29;20058;-92
2023/10/09 09:15:18;;;;;;;6.53;1.37;;;6.80;81.60;;;;;;4814841;29;20041;-92
2023/10/09 09:17:46;;;;;;;6.75;1.30;;;6.90;81.60;;;;;;4814583;29;20049;-91
2023/10/09 09:20:39;;;;;;;5.05;2.10;;;6.80;81.30;;;;;;4816949;29;20137;-91
2023/10/09 09:23:12;;;;;;;7.80;1.90;;;6.80;81.60;;;;;;4819235;29;20042;-91
2023/10/09 09:25:59;;;;;;;5.30;1.60;;;6.80;81.30;;;;;;4814025;29;20126;-93
2023/10/09 09:28:32;;;;;;;7.97;1.73;;;6.80;81.60;;;;;;4818573;29;20084;-92
2023/10/09 09:31:13;;;;;;;6.15;1.85;;;6.70;81.30;;;;;;4829189;29;20048;-92
2023/10/09 09:33:43;;;;;;;7.97;2.03;;;6.80;81.90;;;;;;4829039;29;20084;-92
2023/10/09 09:36:11;;;;;;;8.02;1.63;;;7.00;81.60;;;;;;4829452;29;20038;-92
2023/10/09 09:38:47;;;;;;;5.00;1.70;;;7.10;81.30;;;;;;4814482;29;20050;-91
2023/10/09 09:41:24;;;;;;;7.10;1.80;;;7.20;81.20;;;;;;4812203;29;20053;-91
2023/10/09 09:44:01;;;;;;;5.65;1.65;;;7.30;80.00;;;;;;4814071;29;20114;-91
2023/10/09 09:46:33;;;;;;;5.88;1.52;;;7.40;80.20;;;;;;4829161;29;20046;-91
2023/10/09 09:49:03;;;;;;;4.63;1.45;;;7.40;80.10;;;;;;4813870;29;20111;-91
2023/10/09 09:51:31;;;;;;;7.25;1.92;;;7.40;79.70;;;;;;4814285;29;20196;-92
2023/10/09 09:53:58;;;;;;;5.93;1.60;;;7.40;79.60;;;;;;4828849;29;20057;-91
2023/10/09 09:56:27;;;;;;;6.38;1.70;;;7.40;79.70;;;;;;4812618;29;20038;-91
2023/10/09 09:59:00;;;;;;;7.93;1.80;;;7.50;79.50;;;;;;4813850;29;20046;-91
2023/10/09 10:01:34;;;;;;;6.10;2.03;;;7.50;79.00;;;;;;4828616;29;20050;-91
2023/10/09 10:04:11;;;;;;;10.25;3.55;;;7.50;79.50;;;;;;4828547;29;20209;-91
2023/10/09 10:06:44;;;;;;;5.67;1.57;;;7.50;79.30;;;;;;4816591;29;20090;-91
2023/10/09 10:09:41;;;;;;;6.03;1.63;;;7.70;78.40;;;;;;4828635;29;20057;-91
2023/10/09 10:12:09;;;;;;;6.07;1.85;;;7.60;77.90;;;;;;4806354;29;20057;-91
2023/10/09 10:15:14;;;;;;;6.65;1.40;;;7.70;78.40;;;;;;4815384;29;20053;-91
2023/10/09 10:17:58;;;;;;;5.28;1.50;;;7.80;78.10;;;;;;4816588;29;20050;-92
2023/10/09 10:20:26;;;;;;;5.20;1.67;;;7.80;77.80;;;;;;4827906;29;20046;-91
2023/10/09 10:23:19;;;;;;;7.28;1.60;;;7.90;78.30;;;;;;4811944;29;20050;-91
2023/10/09 10:25:49;;;;;;;6.63;1.88;;;7.90;78.10;;;;;;4826101;29;20073;-91
2023/10/09 10:28:38;;;;;;;6.75;1.30;;;7.80;77.80;;;;;;4813893;29;20045;-91
2023/10/09 10:31:08;;;;;;;7.60;1.90;;;7.80;77.90;;;;;;4828750;29;20049;-91
2023/10/09 10:33:54;;;;;;;6.33;1.90;;;7.90;79.10;;;;;;4813204;29;20058;-91
2023/10/09 10:36:23;;;;;;;8.25;2.70;;;8.00;79.00;;;;;;4815327;29;20515;-92
2023/10/09 10:42:00;;;;;;;9.95;3.40;;;8.10;78.70;;;;;;4843698;29;20095;-91
2023/10/09 10:44:36;;;;;;;7.28;2.00;;;8.20;78.60;;;;;;4812978;29;20057;-92
2023/10/09 10:47:22;;;;;;;8.10;2.10;;;8.20;78.40;;;;;;4828201;29;20057;-92
2023/10/09 10:49:51;;;;;;;5.93;1.70;;;8.30;78.60;;;;;;4828290;29;20072;-92
2023/10/09 10:52:44;;;;;;;7.88;1.80;;;8.20;78.90;;;;;;4813072;29;20056;-92
2023/10/09 10:58:10;;;;;;;7.55;2.15;;;8.30;79.60;;;;;;4827607;29;21118;-92
2023/10/09 11:03:31;;;;;;;6.78;2.45;;;8.40;80.30;;;;;;4827853;29;20053;-92
2023/10/09 11:06:15;;;;;;;8.15;2.42;;;8.40;79.90;;;;;;4812990;29;20122;-92
2023/10/09 11:08:59;;;;;;;5.70;1.80;;;8.30;80.30;;;;;;4814436;29;20050;-92
2023/10/09 11:11:40;;;;;;;8.93;2.20;;;8.30;80.20;;;;;;4812235;29;20057;-93
2023/10/09 11:14:14;;;;;;;9.57;2.93;;;8.40;79.90;;;;;;4812549;29;20050;-92
2023/10/09 11:16:42;;;;;;;7.63;2.28;;;8.30;79.90;;;;;;4827735;29;20050;-92
2023/10/09 11:19:32;;;;;;;7.13;1.90;;;8.20;80.90;;;;;;4812847;29;20056;-92
2023/10/09 11:24:35;;;;;;;7.95;2.65;;;8.20;81.00;;;;;;4827745;29;20050;-92
2023/10/09 11:27:06;;;;;;;10.47;3.00;;;8.20;81.20;;;;;;4827267;29;20057;-92
2023/10/09 11:32:19;;;;;;;6.88;2.53;;;8.30;81.40;;;;;;4827373;29;20057;-93
2023/10/09 11:34:53;;;;;;;6.63;2.33;;;8.20;81.60;;;;;;4812570;29;20062;-92
2023/10/09 11:39:56;;;;;;;9.43;2.90;;;8.10;82.10;;;;;;4827359;29;20149;-92
2023/10/09 11:45:28;;;;;;;8.23;2.90;;;8.00;82.30;;;;;;4826840;29;20042;-92
2023/10/09 11:48:00;;;;;;;8.50;3.00;;;8.00;82.70;;;;;;4812242;29;20757;-92
2023/10/09 11:50:48;;;;;;;8.55;3.20;;;8.00;82.90;;;;;;4811142;29;20500;-92
2023/10/09 11:55:54;;;;;;;8.57;3.25;;;7.90;83.80;;;;;;4827139;29;20053;-92
2023/10/09 11:58:22;;;;;;;12.00;4.07;;;7.90;83.80;;;;;;4812403;29;20046;-92
2023/10/09 12:01:04;;;;;;;8.70;3.65;;;7.90;83.90;;;;;;4812113;29;20049;-92
2023/10/09 12:03:32;;;;;;;9.10;3.92;;;7.90;84.30;;;;;;4826864;29;20087;-91
2023/10/09 12:06:05;;;;;;;10.07;4.30;;;8.00;84.20;;;;;;4827064;29;20069;-92
2023/10/09 12:08:33;;;;;;;11.82;4.43;;;8.00;84.20;;;;;;4811724;29;20054;-91
2023/10/09 12:11:08;;;;;;;13.90;4.78;;;8.00;84.10;;;;;;4812069;29;20552;-91
2023/10/09 12:13:38;;;;;;;13.10;4.70;;;8.00;84.30;;;;;;4812016;29;20052;-92
2023/10/09 12:16:09;;;;;;;14.13;4.65;;;7.90;84.50;;;;;;4811968;29;20141;-92
2023/10/09 12:18:39;;;;;;;11.13;3.80;;;7.90;84.30;;;;;;4812055;29;20046;-92
2023/10/09 12:21:06;;;;;;;7.15;3.00;;;7.90;84.70;;;;;;4826890;29;20038;-92
2023/10/09 12:23:37;;;;;;;7.78;2.33;;;8.00;84.70;;;;;;4814386;29;20069;-92
2023/10/09 12:26:04;;;;;;;7.68;2.90;;;7.90;84.60;;;;;;4815656;29;20056;-91
2023/10/09 12:28:34;;;;;;;7.63;2.60;;;7.80;84.60;;;;;;4816679;29;20054;-92
2023/10/09 12:31:02;;;;;;;7.43;2.90;;;7.90;84.80;;;;;;4812662;29;20050;-91
2023/10/09 12:33:29;;;;;;;6.45;2.67;;;7.90;84.70;;;;;;4815348;29;20045;-92
2023/10/09 12:36:00;;;;;;;7.97;4.00;;;8.00;85.20;;;;;;4826185;29;20535;-91
2023/10/09 12:38:32;;;;;;;7.82;2.80;;;8.00;85.00;;;;;;4831409;29;20052;-93
2023/10/09 12:41:26;;;;;;;9.05;3.47;;;8.00;84.40;;;;;;4815997;29;20046;-94
2023/10/09 12:43:52;;;;;;;7.33;2.50;;;8.00;84.20;;;;;;4830835;29;20504;-92
2023/10/09 12:46:22;;;;;;;8.75;2.90;;;8.10;84.00;;;;;;4831029;29;20058;-93
2023/10/09 12:48:50;;;;;;;6.85;2.72;;;8.00;84.00;;;;;;4830935;29;20050;-93
2023/10/09 12:51:17;;;;;;;8.50;3.10;;;8.00;84.50;;;;;;4816055;29;20527;-93
2023/10/09 12:53:45;;;;;;;8.38;2.78;;;8.00;83.90;;;;;;4815892;29;20054;-92
2023/10/09 12:56:12;;;;;;;7.27;2.50;;;8.00;84.10;;;;;;4815790;29;20114;-92
2023/10/09 12:58:40;;;;;;;7.18;2.58;;;8.10;84.30;;;;;;4816016;29;20042;-94
2023/10/09 13:01:09;;;;;;;6.20;2.28;;;8.10;84.10;;;;;;4815928;29;20090;-93
2023/10/09 13:03:38;;;;;;;5.95;2.00;;;8.20;83.80;;;;;;4815605;29;20054;-92
2023/10/09 13:06:11;;;;;;;5.53;1.67;;;8.20;83.90;;;;;;4816804;29;20483;-94
2023/10/09 13:08:42;;;;;;;5.73;2.00;;;8.20;83.50;;;;;;4815547;29;20058;-94
2023/10/09 13:11:10;;;;;;;7.10;2.33;;;8.20;83.20;;;;;;4815520;29;20045;-93
2023/10/09 13:13:40;;;;;;;11.10;2.60;;;8.30;83.60;;;;;;4825292;29;20050;-91
2023/10/09 13:16:08;;;;;;;9.18;3.17;;;8.30;83.50;;;;;;4826770;29;20393;-93
2023/10/09 13:18:37;;;;;;;11.93;3.70;;;8.40;83.30;;;;;;4842593;29;20046;-93
2023/10/09 13:21:04;;;;;;;8.97;3.60;;;8.50;83.60;;;;;;4830315;29;20042;-93
2023/10/09 13:23:46;;;;;;;11.40;3.72;;;8.50;83.20;;;;;;4814935;29;20056;-93
2023/10/09 13:26:18;;;;;;;8.93;2.65;;;8.50;83.20;;;;;;4815457;29;20054;-93
2023/10/09 13:28:56;;;;;;;7.38;2.67;;;8.50;82.80;;;;;;4815464;29;20125;-93
2023/10/09 13:31:31;;;;;;;7.07;2.35;;;8.50;83.00;;;;;;4829871;29;20042;-93
2023/10/09 13:34:00;;;;;;;11.10;2.67;;;8.60;82.70;;;;;;4829854;29;20050;-94
2023/10/09 13:36:31;;;;;;;7.75;2.47;;;8.60;82.50;;;;;;4828989;29;20048;-91
2023/10/09 13:41:47;;;;;;;7.35;3.05;;;8.70;82.40;;;;;;4828330;29;20454;-92
2023/10/09 13:44:15;;;;;;;7.32;2.45;;;8.70;82.70;;;;;;4815423;29;20120;-94
2023/10/09 13:46:43;;;;;;;7.50;2.67;;;8.70;82.10;;;;;;4834362;29;20061;-93
2023/10/09 13:49:14;;;;;;;9.05;3.55;;;8.70;82.10;;;;;;4818397;29;20394;-93
2023/10/09 13:51:44;;;;;;;13.82;4.22;;;8.70;82.10;;;;;;4832482;29;20144;-94
2023/10/09 13:54:21;;;;;;;9.80;4.20;;;8.80;82.60;;;;;;4816904;29;20049;-93
2023/10/09 13:56:52;;;;;;;10.25;3.88;;;8.80;82.30;;;;;;4833937;29;20472;-94
2023/10/09 13:59:22;;;;;;;12.00;3.60;;;8.90;82.50;;;;;;4834457;29;20508;-94
2023/10/09 14:01:49;;;;;;;7.47;3.20;;;8.90;82.40;;;;;;4833595;29;20049;-93
2023/10/09 14:04:19;;;;;;;14.48;4.88;;;8.90;82.20;;;;;;4817231;29;20058;-94
2023/10/09 14:06:46;;;;;;;8.82;3.63;;;8.90;82.40;;;;;;4817545;29;20081;-94
2023/10/09 14:09:32;;;;;;;7.72;3.25;;;8.90;82.80;;;;;;4832490;29;20046;-94
2023/10/09 14:12:06;;;;;;;7.03;2.50;;;8.80;82.60;;;;;;4816529;29;20054;-93
2023/10/09 14:14:38;;;;;;;7.40;2.65;;;8.90;82.90;;;;;;4815908;29;20057;-93
2023/10/09 14:17:13;;;;;;;7.68;3.00;;;8.90;82.80;;;;;;4816775;29;20042;-94
2023/10/09 14:19:46;;;;;;;8.88;2.78;;;8.80;83.10;;;;;;4831587;29;20152;-93
2023/10/09 14:22:17;;;;;;;9.52;2.75;;;8.80;83.10;;;;;;4830342;29;20077;-93
2023/10/09 14:24:46;;;;;;;8.33;3.00;;;8.70;83.30;;;;;;4830720;29;20046;-93
2023/10/09 14:27:19;;;;;;;8.68;3.00;;;8.70;83.60;;;;;;4816120;29;20057;-93
2023/10/09 14:29:48;;;;;;;7.50;3.15;;;8.70;83.70;;;;;;4817281;29;20140;-94
2023/10/09 14:32:16;;;;;;;7.95;2.63;;;8.80;83.80;;;;;;4816947;29;20060;-93
2023/10/09 14:34:49;;;;;;;10.00;3.50;;;8.90;83.80;;;;;;4832135;29;20057;-92
2023/10/09 14:37:19;;;;;;;10.23;2.67;;;8.90;83.40;;;;;;4832281;29;20054;-93
2023/10/09 14:39:48;;;;;;;8.07;2.80;;;9.00;83.60;;;;;;4834109;29;20050;-92
2023/10/09 14:42:16;;;;;;;9.35;2.70;;;9.00;83.60;;;;;;4833927;29;20121;-93
2023/10/09 14:44:47;;;;;;;7.68;2.78;;;9.00;83.30;;;;;;4818365;29;20472;-92
2023/10/09 14:47:15;;;;;;;8.88;2.95;;;8.90;83.20;;;;;;4835313;29;20381;-93
2023/10/09 14:49:46;;;;;;;8.40;3.03;;;8.90;83.10;;;;;;4822462;29;20424;-93
2023/10/09 14:52:20;;;;;;;9.40;3.25;;;8.90;83.30;;;;;;4835058;29;20064;-93
2023/10/09 14:54:50;;;;;;;8.35;3.05;;;8.90;83.50;;;;;;4831678;29;20058;-93
2023/10/09 14:57:18;;;;;;;8.27;3.20;;;9.00;83.60;;;;;;4816883;29;20042;-93
2023/10/09 14:59:45;;;;;;;9.48;3.38;;;9.00;83.70;;;;;;4819129;29;20075;-94
2023/10/09 15:02:14;;;;;;;8.13;3.03;;;9.10;83.70;;;;;;4821177;29;20385;-93
2023/10/09 15:04:42;;;;;;;7.93;3.10;;;9.10;83.90;;;;;;4816711;29;20153;-94
2023/10/09 15:07:09;;;;;;;8.48;3.42;;;9.10;84.10;;;;;;4820486;29;20409;-93
2023/10/09 15:09:40;;;;;;;8.65;3.50;;;9.10;84.20;;;;;;4814282;29;20110;-94
2023/10/09 15:12:07;;;;;;;9.27;3.70;;;9.10;84.30;;;;;;4804416;29;20420;-93
2023/10/09 15:14:34;;;;;;;10.23;4.17;;;9.10;84.50;;;;;;4828930;29;20054;-94
2023/10/09 15:17:02;;;;;;;11.15;4.82;;;9.10;84.70;;;;;;4814229;29;20146;-93
2023/10/09 15:19:30;;;;;;;9.82;4.28;;;9.10;84.60;;;;;;4814222;29;20050;-93
2023/10/09 15:21:59;;;;;;;12.57;6.35;;;9.10;84.80;;;;;;4813678;29;20564;-94
2023/10/09 15:24:27;;;;;;;13.18;5.93;;;9.10;84.90;;;;;;4814001;29;20141;-93
2023/10/09 15:26:58;;;;;;;11.97;5.60;;;9.10;84.90;;;;;;4829442;29;20057;-93
2023/10/09 15:29:30;;;;;;;9.43;4.40;;;9.00;84.90;;;;;;4813890;29;20050;-93
2023/10/09 15:32:04;;;;;;;9.90;4.00;;;9.00;84.90;;;;;;4829034;29;20053;-94
2023/10/09 15:34:34;;;;;;;11.13;4.75;;;9.10;84.70;;;;;;4829908;29;20409;-93
2023/10/09 15:37:04;;;;;;;11.43;4.95;;;9.10;84.90;;;;;;4810289;29;20060;-94
2023/10/09 15:39:31;;;;;;;9.70;3.90;;;9.00;85.10;;;;;;4813578;29;20504;-91
2023/10/09 15:41:59;;;;;;;9.88;4.30;;;9.00;85.60;;;;;;4813442;29;20042;-93
2023/10/09 15:44:27;;;;;;;11.52;4.85;;;9.00;85.60;;;;;;4813446;29;20057;-92
2023/10/09 15:46:59;;;;;;;12.93;5.45;;;9.00;85.50;;;;;;4813841;29;20046;-95
2023/10/09 15:49:29;;;;;;;14.43;5.55;;;9.00;85.80;;;;;;4813658;29;20080;-94
2023/10/09 15:51:58;;;;;;;10.53;4.97;;;9.00;85.90;;;;;;4828850;29;20064;-90
2023/10/09 15:54:27;;;;;;;12.90;4.90;;;9.00;86.00;;;;;;4813379;29;20077;-94
2023/10/09 15:56:55;;;;;;;10.18;4.00;;;9.00;86.00;;;;;;4810929;29;20057;-80
2023/10/09 15:59:39;;;;;;;9.32;4.05;;;9.00;85.80;;;;;;4826515;29;20408;-82
2023/10/09 16:02:06;;;;;;;10.05;4.30;;;9.00;85.90;;;;;;4807707;29;20049;-83
2023/10/09 16:04:33;;;;;;;11.60;4.57;;;9.00;85.70;;;;;;4808594;29;20053;-84
2023/10/09 16:07:05;;;;;;;11.23;4.75;;;9.10;85.70;;;;;;4809012;29;20053;-83
2023/10/09 16:09:37;;;;;;;10.30;4.63;;;9.10;85.70;;;;;;4812165;29;20109;-94
2023/10/09 16:12:06;;;;;;;12.15;5.20;;;9.10;85.80;;;;;;4813144;29;20092;-94
2023/10/09 16:14:36;;;;;;;11.77;5.45;;;9.00;85.70;;;;;;4828351;29;20400;-94